Time;durP1;ratioP1;P1;durP2;ratioP2;P2;SDS_P1;SDS_P2;PMS_P1;PMS_P2;Temp;Humidity;BMP_temperature;BMP_pressure;BME280_temperature;BME280_humidity;BME280_pressure;Samples;Min_cycle;Max_cycle;Signal;HPM_P1;HPM_P2
2020/12/25 00:00:25;;;;;;;4.73;3.40;;;4.20;99.90;;;;;;5047300;28;20409;-51
2020/12/25 00:02:51;;;;;;;6.40;3.87;;;1.50;99.90;;;;;;5046025;28;20422;-51
2020/12/25 00:05:17;;;;;;;5.35;3.28;;;3.90;99.90;;;;;;5047259;28;20428;-51
2020/12/25 00:07:42;;;;;;;6.97;4.95;;;1.50;99.90;;;;;;5045328;28;20400;-51
2020/12/25 00:10:08;;;;;;;6.60;4.00;;;1.50;99.90;;;;;;5046042;28;20385;-51
2020/12/25 00:12:34;;;;;;;6.13;4.07;;;4.50;99.90;;;;;;5047133;28;20416;-54
2020/12/25 00:14:59;;;;;;;6.33;4.00;;;1.50;99.90;;;;;;5048732;28;20757;-52
2020/12/25 00:17:25;;;;;;;5.90;3.90;;;1.50;99.90;;;;;;5045239;28;20712;-52
2020/12/25 00:19:51;;;;;;;6.32;3.00;;;1.40;99.90;;;;;;5048787;28;20589;-51
2020/12/25 00:22:16;;;;;;;7.35;3.47;;;3.10;99.90;;;;;;5031284;28;20409;-51
2020/12/25 00:24:42;;;;;;;6.57;2.90;;;4.20;99.90;;;;;;5052479;28;20420;-51
2020/12/25 00:27:08;;;;;;;7.68;3.20;;;3.20;99.90;;;;;;5052689;28;20930;-52
2020/12/25 00:29:33;;;;;;;6.25;2.90;;;4.60;99.90;;;;;;5051260;28;20401;-53
2020/12/25 00:31:59;;;;;;;7.73;3.37;;;2.90;99.90;;;;;;5052247;28;20765;-51
2020/12/25 00:34:24;;;;;;;8.30;3.65;;;4.00;99.90;;;;;;5051333;28;20476;-51
2020/12/25 00:36:50;;;;;;;7.30;3.40;;;1.60;99.90;;;;;;5052570;28;20459;-51
2020/12/25 00:39:17;;;;;;;7.77;3.87;;;3.60;99.90;;;;;;5052461;28;20378;-51
2020/12/25 00:41:48;;;;;;;5.25;2.80;;;1.70;99.90;;;;;;5051647;28;20416;-51
2020/12/25 00:44:14;;;;;;;5.22;3.00;;;3.20;99.90;;;;;;5053182;28;20393;-52
2020/12/25 00:46:41;;;;;;;5.82;3.40;;;2.40;99.90;;;;;;5050472;28;20889;-51
2020/12/25 00:49:08;;;;;;;5.40;3.10;;;3.40;99.90;;;;;;5052816;28;20390;-51
2020/12/25 00:51:33;;;;;;;5.60;3.20;;;1.60;99.90;;;;;;5052385;28;20412;-57
2020/12/25 00:53:59;;;;;;;5.20;3.22;;;1.60;99.90;;;;;;5051243;28;20432;-51
2020/12/25 00:56:25;;;;;;;3.97;2.30;;;4.10;99.90;;;;;;5052914;28;20386;-51
2020/12/25 00:58:51;;;;;;;4.35;2.90;;;2.70;99.90;;;;;;5051944;28;20382;-52
2020/12/25 01:01:17;;;;;;;4.32;3.00;;;1.70;99.90;;;;;;5050872;28;20539;-51
2020/12/25 01:03:44;;;;;;;6.10;3.20;;;2.80;99.90;;;;;;5052198;28;20385;-51
2020/12/25 01:06:14;;;;;;;4.90;3.40;;;3.00;99.90;;;;;;5051875;28;20893;-52
2020/12/25 01:08:40;;;;;;;5.45;3.60;;;2.20;99.90;;;;;;5051155;28;20405;-51
2020/12/25 01:11:07;;;;;;;5.75;4.20;;;4.10;99.90;;;;;;5051183;28;20405;-51
2020/12/25 01:13:33;;;;;;;5.30;4.03;;;2.10;99.90;;;;;;5052303;28;20469;-57
2020/12/25 01:16:16;;;;;;;6.77;4.10;;;4.80;99.90;;;;;;5052071;28;20400;-51
2020/12/25 01:18:43;;;;;;;6.05;4.20;;;5.00;99.90;;;;;;5050183;28;20755;-51
2020/12/25 01:21:09;;;;;;;5.50;3.90;;;2.30;99.90;;;;;;5051219;28;20409;-53
2020/12/25 01:23:35;;;;;;;5.73;4.00;;;4.90;99.90;;;;;;5051370;28;20370;-53
2020/12/25 01:26:01;;;;;;;6.07;4.30;;;3.40;99.90;;;;;;5051792;28;20490;-51
2020/12/25 01:28:27;;;;;;;6.78;4.20;;;2.50;99.90;;;;;;5050244;28;20424;-52
2020/12/25 01:30:52;;;;;;;7.43;4.70;;;2.40;99.90;;;;;;5050313;28;20847;-52
2020/12/25 01:33:18;;;;;;;8.45;5.55;;;2.30;99.90;;;;;;5051785;28;20389;-51
2020/12/25 01:35:44;;;;;;;8.98;5.70;;;4.30;99.90;;;;;;5049594;28;20408;-52
2020/12/25 01:38:09;;;;;;;8.60;5.80;;;2.20;99.90;;;;;;5052625;28;20390;-51
2020/12/25 01:40:35;;;;;;;8.90;6.20;;;4.40;99.90;;;;;;5050741;28;20392;-57
2020/12/25 01:43:01;;;;;;;9.10;6.00;;;2.80;99.90;;;;;;5051447;28;20369;-51
2020/12/25 01:45:26;;;;;;;9.00;5.65;;;2.20;99.90;;;;;;5050794;28;20420;-51
2020/12/25 01:47:54;;;;;;;10.00;6.20;;;2.20;99.90;;;;;;5050101;28;21275;-51
2020/12/25 01:50:22;;;;;;;10.25;5.90;;;3.40;99.90;;;;;;5051341;28;20397;-51
2020/12/25 01:52:50;;;;;;;10.70;6.78;;;4.60;99.90;;;;;;5031988;28;20893;-54
2020/12/25 01:55:16;;;;;;;10.10;6.47;;;2.70;99.90;;;;;;5051866;28;20408;-51
2020/12/25 01:57:43;;;;;;;10.48;6.50;;;3.80;99.90;;;;;;5049462;28;20401;-51
2020/12/25 02:00:09;;;;;;;11.95;6.93;;;4.10;99.90;;;;;;5051689;28;20420;-53
2020/12/25 02:02:35;;;;;;;13.43;7.88;;;4.70;99.90;;;;;;5051747;28;20386;-57
2020/12/25 02:05:00;;;;;;;13.30;6.95;;;4.70;99.90;;;;;;5049836;28;20905;-51
2020/12/25 02:07:26;;;;;;;13.60;7.60;;;2.60;99.90;;;;;;5050950;28;20396;-53
2020/12/25 02:09:53;;;;;;;11.65;6.63;;;2.10;99.90;;;;;;5049914;28;20786;-51
2020/12/25 02:12:19;;;;;;;13.68;7.60;;;2.20;99.90;;;;;;5050780;28;20401;-52
2020/12/25 02:14:46;;;;;;;11.77;7.07;;;4.40;99.90;;;;;;5049068;28;20393;-52
2020/12/25 02:17:13;;;;;;;15.23;7.85;;;2.20;99.90;;;;;;5051631;28;20389;-51
2020/12/25 02:19:38;;;;;;;15.93;8.25;;;2.20;99.90;;;;;;5049835;28;20404;-52
2020/12/25 02:22:04;;;;;;;14.30;8.57;;;5.00;99.90;;;;;;5051919;28;20377;-52
2020/12/25 02:24:30;;;;;;;16.25;9.73;;;4.60;99.90;;;;;;5050213;28;20401;-52
2020/12/25 02:26:56;;;;;;;15.60;8.30;;;5.40;99.90;;;;;;5050109;28;20404;-51
2020/12/25 02:29:21;;;;;;;21.23;10.80;;;2.30;99.90;;;;;;5051417;28;20378;-51
2020/12/25 02:31:47;;;;;;;25.03;12.63;;;2.30;99.90;;;;;;5049310;28;20859;-51
2020/12/25 02:34:13;;;;;;;21.63;10.67;;;3.00;99.90;;;;;;5050855;28;20407;-51
2020/12/25 02:36:38;;;;;;;16.02;9.70;;;5.50;99.90;;;;;;5050653;28;20408;-52
2020/12/25 02:39:05;;;;;;;16.27;7.95;;;5.40;99.90;;;;;;5048691;28;20465;-52
2020/12/25 02:41:31;;;;;;;17.67;8.53;;;4.20;99.90;;;;;;5050572;28;20483;-52
2020/12/25 02:43:57;;;;;;;16.52;9.52;;;3.10;99.90;;;;;;5039714;28;20650;-52
2020/12/25 02:46:26;;;;;;;25.52;13.30;;;2.50;99.90;;;;;;5050431;28;20401;-52
2020/12/25 02:48:52;;;;;;;25.08;12.10;;;4.60;99.90;;;;;;5048656;28;20471;-52
2020/12/25 02:51:18;;;;;;;14.68;8.70;;;2.50;99.90;;;;;;5051156;28;20852;-51
2020/12/25 02:53:45;;;;;;;15.25;9.40;;;2.50;99.90;;;;;;5049167;28;20484;-51
2020/12/25 02:56:18;;;;;;;13.88;8.40;;;2.50;99.90;;;;;;5049757;28;20385;-52
2020/12/25 02:58:45;;;;;;;14.93;8.60;;;2.60;99.90;;;;;;5049018;28;20401;-52
2020/12/25 03:01:12;;;;;;;14.70;9.30;;;2.60;99.90;;;;;;5049086;28;20478;-51
2020/12/25 03:03:41;;;;;;;15.30;8.38;;;2.50;99.90;;;;;;5049515;28;20385;-54
2020/12/25 03:06:08;;;;;;;17.52;8.55;;;3.00;99.90;;;;;;5050248;28;20435;-52
2020/12/25 03:08:35;;;;;;;13.77;8.40;;;3.40;99.90;;;;;;5048751;28;20532;-52
2020/12/25 03:11:01;;;;;;;13.87;7.50;;;2.60;99.90;;;;;;5050268;28;20365;-51
2020/12/25 03:13:26;;;;;;;12.37;8.07;;;2.60;99.90;;;;;;5049086;28;20451;-51
2020/12/25 03:15:52;;;;;;;13.13;8.33;;;4.70;99.90;;;;;;5050193;28;20434;-51
2020/12/25 03:18:18;;;;;;;13.43;8.05;;;2.80;99.90;;;;;;5050684;28;20382;-51
2020/12/25 03:20:44;;;;;;;14.10;8.32;;;2.80;99.90;;;;;;5048338;28;20525;-51
2020/12/25 03:23:10;;;;;;;11.82;7.43;;;2.80;99.90;;;;;;5049730;28;20385;-51
2020/12/25 03:25:35;;;;;;;13.43;7.60;;;2.60;99.90;;;;;;5048569;28;20424;-53
2020/12/25 03:28:01;;;;;;;11.30;7.60;;;2.60;99.90;;;;;;5050092;28;20428;-51
2020/12/25 03:30:27;;;;;;;15.45;7.85;;;2.80;99.90;;;;;;5048773;28;20397;-52
2020/12/25 03:32:52;;;;;;;14.43;8.00;;;4.50;99.90;;;;;;5049277;28;20381;-51
2020/12/25 03:35:19;;;;;;;13.90;7.97;;;3.10;99.90;;;;;;5048585;28;20413;-51
2020/12/25 03:37:44;;;;;;;11.65;7.43;;;2.80;99.90;;;;;;5050154;28;20842;-51
2020/12/25 03:40:11;;;;;;;12.20;8.00;;;2.80;99.90;;;;;;5049173;28;20409;-51
2020/12/25 03:42:36;;;;;;;14.82;8.32;;;2.80;99.90;;;;;;5049946;28;20718;-57
2020/12/25 03:45:03;;;;;;;13.25;7.80;;;2.90;99.90;;;;;;5049615;28;20488;-51
2020/12/25 03:47:29;;;;;;;17.58;8.63;;;2.70;99.90;;;;;;5048513;28;20409;-51
2020/12/25 03:49:55;;;;;;;13.77;8.60;;;2.70;99.90;;;;;;5049720;28;20439;-52
2020/12/25 03:52:21;;;;;;;14.95;8.15;;;3.70;99.90;;;;;;5049369;28;20446;-52
2020/12/25 03:54:47;;;;;;;15.25;8.43;;;2.90;99.90;;;;;;5049764;28;20390;-53
2020/12/25 03:57:13;;;;;;;11.95;7.22;;;3.90;99.90;;;;;;5049759;28;20404;-53
2020/12/25 03:59:39;;;;;;;16.50;8.20;;;4.90;99.90;;;;;;5053433;28;20373;-56
2020/12/25 04:02:04;;;;;;;12.47;7.60;;;2.80;99.90;;;;;;5053701;28;20499;-53
2020/12/25 04:04:30;;;;;;;12.52;7.35;;;5.00;99.90;;;;;;5053156;28;20424;-53
2020/12/25 04:06:56;;;;;;;12.68;7.07;;;5.60;99.90;;;;;;5053808;28;21007;-52
2020/12/25 04:09:21;;;;;;;13.40;7.60;;;2.70;99.90;;;;;;5054538;28;20393;-51
2020/12/25 04:11:51;;;;;;;14.43;7.70;;;5.20;99.90;;;;;;5051635;28;20393;-51
2020/12/25 04:14:18;;;;;;;12.75;7.65;;;5.50;99.90;;;;;;5054129;28;20385;-51
2020/12/25 04:16:44;;;;;;;14.00;7.40;;;2.80;99.90;;;;;;5053316;28;20428;-51
2020/12/25 04:19:10;;;;;;;13.70;8.40;;;2.70;99.90;;;;;;5053096;28;20394;-52
2020/12/25 04:21:40;;;;;;;13.27;7.18;;;2.70;99.90;;;;;;5053104;28;20391;-57
2020/12/25 04:24:06;;;;;;;13.60;7.95;;;2.60;99.90;;;;;;5052940;28;20489;-51
2020/12/25 04:26:31;;;;;;;14.18;7.10;;;2.70;99.90;;;;;;5068898;28;20543;-51
2020/12/25 04:28:57;;;;;;;11.63;7.05;;;4.40;99.90;;;;;;5051457;28;20428;-51
2020/12/25 04:31:29;;;;;;;14.07;7.22;;;2.60;99.90;;;;;;5053122;28;20476;-51
2020/12/25 04:33:55;;;;;;;13.63;7.03;;;2.60;99.90;;;;;;5052556;28;20386;-51
2020/12/25 04:36:21;;;;;;;11.50;7.18;;;2.60;99.90;;;;;;5051602;28;20528;-51
2020/12/25 04:38:47;;;;;;;12.88;7.05;;;5.50;99.90;;;;;;5052339;28;20434;-51
2020/12/25 04:41:13;;;;;;;13.05;7.25;;;2.80;99.90;;;;;;5051825;28;20747;-51
2020/12/25 04:43:42;;;;;;;12.48;7.70;;;5.10;99.90;;;;;;5052524;28;20387;-52
2020/12/25 04:46:09;;;;;;;14.85;7.60;;;5.40;99.90;;;;;;5051310;28;20424;-51
2020/12/25 04:48:38;;;;;;;13.38;7.90;;;2.50;99.90;;;;;;5052049;28;20409;-51
2020/12/25 04:51:04;;;;;;;12.52;7.07;;;4.50;99.90;;;;;;5052383;28;20405;-52
2020/12/25 04:53:31;;;;;;;15.17;8.50;;;5.10;99.90;;;;;;5051969;28;20389;-51
2020/12/25 04:55:57;;;;;;;13.37;8.10;;;2.70;99.90;;;;;;5052042;28;20389;-51
2020/12/25 04:58:24;;;;;;;13.35;7.68;;;5.40;99.90;;;;;;5051450;28;20770;-51
2020/12/25 05:01:07;;;;;;;12.55;7.18;;;2.80;99.90;;;;;;5051477;28;20385;-52
2020/12/25 05:03:43;;;;;;;15.55;7.88;;;5.50;99.90;;;;;;5048727;28;20395;-52
2020/12/25 05:06:10;;;;;;;15.15;7.75;;;3.90;99.90;;;;;;5050718;28;20420;-51
2020/12/25 05:08:56;;;;;;;13.35;7.55;;;5.20;99.90;;;;;;5052976;28;20481;-57
2020/12/25 05:11:22;;;;;;;14.15;7.72;;;2.70;99.90;;;;;;5050762;28;20530;-51
2020/12/25 05:13:50;;;;;;;14.30;8.00;;;5.70;99.90;;;;;;5051914;28;20468;-52
2020/12/25 05:16:17;;;;;;;15.05;8.60;;;3.20;99.90;;;;;;5051891;28;20880;-52
2020/12/25 05:18:50;;;;;;;13.65;8.02;;;2.70;99.90;;;;;;5050728;28;20490;-51
2020/12/25 05:21:18;;;;;;;14.00;8.35;;;4.50;99.90;;;;;;5051229;28;20408;-51
2020/12/25 05:23:45;;;;;;;15.43;8.27;;;3.00;99.90;;;;;;5051468;28;20881;-51
2020/12/25 05:26:12;;;;;;;14.30;8.65;;;4.80;99.90;;;;;;5051768;28;20416;-52
2020/12/25 05:28:40;;;;;;;15.32;9.25;;;2.60;99.90;;;;;;5050176;28;20405;-55
2020/12/25 05:31:07;;;;;;;16.35;8.90;;;2.80;99.90;;;;;;5052507;28;20397;-50
2020/12/25 05:33:33;;;;;;;13.95;8.43;;;2.90;99.90;;;;;;5051288;28;20463;-50
2020/12/25 05:36:03;;;;;;;15.20;8.93;;;2.80;99.90;;;;;;5050266;28;20413;-50
2020/12/25 05:38:29;;;;;;;16.40;9.50;;;2.60;99.90;;;;;;5051322;28;20498;-49
2020/12/25 05:40:55;;;;;;;13.83;9.03;;;4.60;99.90;;;;;;5049995;28;20394;-50
2020/12/25 05:43:21;;;;;;;16.70;9.10;;;4.80;99.90;;;;;;5033518;28;20390;-50
2020/12/25 05:45:47;;;;;;;19.13;9.50;;;2.50;99.90;;;;;;5050394;28;20441;-50
2020/12/25 05:48:13;;;;;;;15.32;9.32;;;5.50;99.90;;;;;;5030629;28;20469;-49
2020/12/25 05:50:40;;;;;;;17.08;9.07;;;4.10;99.90;;;;;;5041234;28;20447;-50
2020/12/25 05:53:06;;;;;;;18.45;9.80;;;2.50;99.90;;;;;;5051455;28;20373;-50
2020/12/25 05:55:32;;;;;;;15.17;9.07;;;3.60;99.90;;;;;;5050476;28;20402;-50
2020/12/25 05:57:58;;;;;;;18.23;10.20;;;4.60;99.90;;;;;;5050841;28;20833;-50
2020/12/25 06:00:25;;;;;;;14.55;8.80;;;2.70;99.90;;;;;;5050258;28;20405;-50
2020/12/25 06:02:53;;;;;;;15.23;9.30;;;4.70;99.90;;;;;;5050530;28;20882;-50
2020/12/25 06:05:21;;;;;;;17.67;10.07;;;2.90;99.90;;;;;;5051501;28;20398;-50
2020/12/25 06:07:52;;;;;;;19.30;10.30;;;2.80;99.90;;;;;;5050908;28;20727;-49
2020/12/25 06:10:19;;;;;;;18.70;10.83;;;2.70;99.90;;;;;;5051326;28;20417;-49
2020/12/25 06:12:45;;;;;;;15.98;9.15;;;5.10;99.90;;;;;;5050310;28;20428;-50
2020/12/25 06:15:32;;;;;;;18.10;9.73;;;3.90;99.90;;;;;;5051237;28;20377;-49
2020/12/25 06:18:35;;;;;;;23.98;9.98;;;5.30;99.90;;;;;;5050911;28;21001;-50
2020/12/25 06:21:15;;;;;;;19.15;10.38;;;2.70;99.90;;;;;;5050101;28;20382;-50
2020/12/25 06:23:43;;;;;;;24.50;11.70;;;2.70;99.90;;;;;;5050492;28;20385;-50
2020/12/25 06:26:09;;;;;;;22.15;12.18;;;2.70;99.90;;;;;;5051206;28;20408;-50
2020/12/25 06:28:40;;;;;;;19.88;10.68;;;2.80;99.90;;;;;;5051008;28;20472;-50
2020/12/25 06:31:30;;;;;;;17.17;10.10;;;4.00;99.90;;;;;;5051254;28;20388;-50
2020/12/25 06:33:55;;;;;;;20.30;10.15;;;2.90;99.90;;;;;;5050031;28;20800;-50
2020/12/25 06:36:29;;;;;;;21.13;9.55;;;4.20;99.90;;;;;;5050779;28;20404;-50
2020/12/25 06:39:02;;;;;;;19.33;10.77;;;2.80;99.90;;;;;;5050890;28;20441;-50
2020/12/25 06:41:28;;;;;;;18.48;10.10;;;2.80;99.90;;;;;;5046414;28;20393;-50
2020/12/25 06:43:55;;;;;;;20.47;10.67;;;5.50;99.90;;;;;;5049873;28;20419;-50
2020/12/25 06:46:33;;;;;;;20.27;10.80;;;2.80;99.90;;;;;;5050756;28;20397;-51
2020/12/25 06:49:04;;;;;;;18.20;10.60;;;3.50;99.90;;;;;;5047123;28;20947;-50
2020/12/25 06:51:29;;;;;;;18.77;9.50;;;2.80;99.90;;;;;;5050645;28;20409;-50
2020/12/25 06:53:56;;;;;;;21.48;10.35;;;3.50;99.90;;;;;;5050496;28;20440;-50
2020/12/25 06:56:22;;;;;;;19.95;10.82;;;2.90;99.90;;;;;;5045688;28;20451;-54
2020/12/25 06:58:53;;;;;;;19.57;10.77;;;2.50;99.90;;;;;;5047221;28;20782;-52
2020/12/25 07:01:38;;;;;;;19.23;10.10;;;5.10;99.90;;;;;;5050240;28;20451;-49
2020/12/25 07:04:05;;;;;;;18.63;9.90;;;2.50;99.90;;;;;;5050215;28;20443;-50
2020/12/25 07:06:31;;;;;;;16.38;9.75;;;3.90;99.90;;;;;;5050807;28;20492;-51
2020/12/25 07:09:10;;;;;;;16.85;10.10;;;5.40;99.90;;;;;;5050503;28;20393;-50
2020/12/25 07:11:37;;;;;;;19.70;10.00;;;2.50;99.90;;;;;;5049937;28;20392;-50
2020/12/25 07:14:03;;;;;;;17.38;10.05;;;2.40;99.90;;;;;;5049271;28;20413;-51
2020/12/25 07:16:28;;;;;;;19.40;10.95;;;2.40;99.90;;;;;;5049968;28;20432;-50
2020/12/25 07:18:54;;;;;;;18.57;10.70;;;5.40;99.90;;;;;;5049108;28;20464;-50
2020/12/25 07:21:19;;;;;;;17.70;10.37;;;4.40;99.90;;;;;;5049727;28;20377;-50
2020/12/25 07:23:46;;;;;;;18.55;10.23;;;2.90;99.90;;;;;;5049782;28;20472;-50
2020/12/25 07:26:12;;;;;;;18.85;10.20;;;2.40;99.90;;;;;;5049641;28;20400;-51
2020/12/25 07:28:38;;;;;;;16.97;9.87;;;4.90;99.90;;;;;;5049077;28;20428;-50
2020/12/25 07:31:05;;;;;;;20.52;11.00;;;2.30;99.90;;;;;;5049108;28;20393;-50
2020/12/25 07:33:30;;;;;;;23.77;13.80;;;2.40;99.90;;;;;;5048945;28;20389;-50
2020/12/25 07:35:58;;;;;;;20.05;11.15;;;2.40;99.90;;;;;;5048882;28;20436;-50
2020/12/25 07:38:25;;;;;;;20.00;9.90;;;2.30;99.90;;;;;;5049738;28;20388;-50
2020/12/25 07:40:51;;;;;;;22.40;10.35;;;2.20;99.90;;;;;;5049219;28;20370;-52
2020/12/25 07:43:17;;;;;;;20.98;11.25;;;3.30;99.90;;;;;;5044464;28;20431;-50
2020/12/25 07:45:43;;;;;;;19.90;10.40;;;5.20;99.90;;;;;;5042515;28;20763;-50
2020/12/25 07:48:09;;;;;;;19.25;9.65;;;2.70;99.90;;;;;;5042090;28;20381;-50
2020/12/25 07:50:40;;;;;;;17.92;9.88;;;4.50;99.90;;;;;;5049649;28;20384;-50
2020/12/25 07:53:16;;;;;;;19.00;9.85;;;4.00;99.90;;;;;;5049384;28;20436;-50
2020/12/25 07:55:47;;;;;;;17.85;9.68;;;2.30;99.90;;;;;;5040029;28;20942;-50
2020/12/25 07:58:17;;;;;;;21.15;10.00;;;2.40;99.90;;;;;;5048890;28;20377;-50
2020/12/25 08:00:44;;;;;;;18.20;10.15;;;2.30;99.90;;;;;;5047149;28;20410;-50
2020/12/25 08:03:11;;;;;;;21.63;10.35;;;4.10;99.90;;;;;;5048588;28;20400;-51
2020/12/25 08:05:37;;;;;;;22.63;10.02;;;2.30;99.90;;;;;;5043337;28;20430;-51
2020/12/25 08:08:04;;;;;;;21.88;10.55;;;2.50;99.90;;;;;;5046839;28;20411;-50
2020/12/25 08:10:30;;;;;;;23.20;11.68;;;3.60;99.90;;;;;;5048277;28;20396;-51
2020/12/25 08:12:58;;;;;;;26.02;12.18;;;4.60;99.90;;;;;;5048477;28;20443;-50
2020/12/25 08:15:25;;;;;;;23.73;12.20;;;2.60;99.90;;;;;;5048002;28;20405;-50
2020/12/25 08:17:57;;;;;;;28.25;12.80;;;4.30;99.90;;;;;;5047237;28;20397;-50
2020/12/25 08:20:26;;;;;;;26.23;11.88;;;2.70;99.90;;;;;;5045290;28;20393;-52
2020/12/25 08:23:02;;;;;;;23.67;12.70;;;4.70;99.90;;;;;;5047249;28;20775;-52
2020/12/25 08:25:29;;;;;;;24.38;13.02;;;2.80;99.90;;;;;;5047297;28;20503;-51
2020/12/25 08:27:55;;;;;;;24.10;12.10;;;5.60;99.90;;;;;;5046777;28;20405;-50
2020/12/25 08:30:22;;;;;;;23.90;13.25;;;4.10;99.90;;;;;;5047428;28;20401;-50
2020/12/25 08:32:49;;;;;;;26.10;12.93;;;3.00;99.90;;;;;;5046819;28;20401;-55
2020/12/25 08:35:17;;;;;;;27.88;14.00;;;4.10;99.90;;;;;;5048249;28;20413;-50
2020/12/25 08:37:52;;;;;;;27.92;13.02;;;3.00;99.90;;;;;;5047659;28;20389;-56
2020/12/25 08:40:18;;;;;;;23.17;12.23;;;4.90;99.90;;;;;;5046882;28;20397;-50
2020/12/25 08:42:44;;;;;;;28.38;13.57;;;3.20;99.90;;;;;;5041854;28;20442;-51
2020/12/25 08:45:15;;;;;;;26.40;12.70;;;4.70;99.90;;;;;;5050627;28;20926;-51
2020/12/25 08:47:41;;;;;;;24.63;12.50;;;3.50;99.90;;;;;;5051475;28;20424;-55
2020/12/25 08:50:06;;;;;;;21.63;12.27;;;3.60;99.90;;;;;;5051725;28;20448;-51
2020/12/25 08:52:33;;;;;;;22.25;11.80;;;3.70;99.90;;;;;;5051174;28;20392;-52
2020/12/25 08:54:59;;;;;;;21.75;11.13;;;3.70;99.90;;;;;;5050166;28;20401;-51
2020/12/25 08:57:25;;;;;;;23.08;11.25;;;4.60;99.90;;;;;;5051544;28;20388;-53
2020/12/25 09:00:04;;;;;;;21.48;11.07;;;6.70;99.90;;;;;;5050380;28;20405;-51
2020/12/25 09:02:30;;;;;;;20.23;10.73;;;5.90;99.90;;;;;;5052568;28;20704;-51
2020/12/25 09:04:56;;;;;;;21.83;11.83;;;4.00;99.90;;;;;;5048747;28;20416;-52
2020/12/25 09:07:21;;;;;;;21.77;11.20;;;4.40;99.90;;;;;;5047808;28;20494;-51
2020/12/25 09:09:47;;;;;;;22.63;11.35;;;4.80;99.90;;;;;;5045177;28;20404;-51
2020/12/25 09:12:12;;;;;;;22.50;11.57;;;3.90;99.90;;;;;;5048974;28;20405;-51
2020/12/25 09:14:38;;;;;;;23.05;11.50;;;4.00;99.90;;;;;;5045683;28;20434;-54
2020/12/25 09:17:03;;;;;;;19.40;10.90;;;4.00;99.90;;;;;;5043545;28;20778;-52
2020/12/25 09:19:29;;;;;;;20.15;10.32;;;4.10;99.90;;;;;;5050054;28;20731;-50
2020/12/25 09:21:55;;;;;;;21.33;10.43;;;4.00;99.90;;;;;;5048543;28;20874;-51
2020/12/25 09:24:21;;;;;;;20.00;9.60;;;4.40;99.90;;;;;;5029823;28;20409;-50
2020/12/25 09:26:47;;;;;;;17.63;9.82;;;3.90;99.90;;;;;;5048978;28;20413;-50
2020/12/25 09:29:13;;;;;;;19.92;9.93;;;4.10;99.90;;;;;;5049196;28;20400;-55
2020/12/25 09:31:38;;;;;;;16.83;10.00;;;4.20;99.90;;;;;;5047371;28;20487;-55
2020/12/25 09:34:04;;;;;;;15.13;8.88;;;4.30;99.90;;;;;;5050849;28;20389;-51
2020/12/25 09:36:30;;;;;;;14.70;8.70;;;4.40;99.90;;;;;;5048668;28;20421;-51
2020/12/25 09:38:55;;;;;;;18.13;9.30;;;6.50;99.90;;;;;;5047211;28;20447;-52
2020/12/25 09:41:21;;;;;;;19.25;9.80;;;6.60;99.90;;;;;;5050061;28;20476;-49
2020/12/25 09:43:47;;;;;;;13.60;8.70;;;4.70;99.90;;;;;;5049572;28;20397;-51
2020/12/25 09:46:12;;;;;;;12.60;8.40;;;6.90;99.90;;;;;;5050390;28;20496;-50
2020/12/25 09:48:38;;;;;;;14.52;8.93;;;4.80;99.90;;;;;;5049239;28;20491;-50
2020/12/25 09:51:04;;;;;;;14.37;8.33;;;4.80;99.90;;;;;;5049274;28;20504;-50
2020/12/25 09:53:29;;;;;;;11.70;7.72;;;4.80;99.90;;;;;;5051168;28;20393;-53
2020/12/25 09:55:55;;;;;;;13.52;8.00;;;4.60;99.90;;;;;;5048261;28;20867;-49
2020/12/25 09:58:21;;;;;;;13.13;6.83;;;6.10;99.90;;;;;;5050781;28;20422;-50
2020/12/25 10:00:46;;;;;;;15.00;7.20;;;4.50;99.90;;;;;;5049557;28;20755;-49
2020/12/25 10:03:12;;;;;;;12.82;7.63;;;5.90;99.90;;;;;;5049208;28;20409;-48
2020/12/25 10:05:37;;;;;;;11.30;7.67;;;5.30;99.90;;;;;;5050119;28;20410;-49
2020/12/25 10:08:03;;;;;;;13.40;7.70;;;4.30;99.90;;;;;;5048776;28;20382;-53
2020/12/25 10:10:29;;;;;;;11.90;7.70;;;6.70;99.90;;;;;;5047282;28;20794;-51
2020/12/25 10:12:54;;;;;;;12.38;7.90;;;6.70;99.90;;;;;;5046979;28;20394;-51
2020/12/25 10:15:20;;;;;;;14.05;8.00;;;4.50;99.90;;;;;;5045646;28;20419;-49
2020/12/25 10:17:46;;;;;;;13.35;8.27;;;4.50;99.90;;;;;;5048784;28;20477;-51
2020/12/25 10:20:12;;;;;;;13.40;8.47;;;5.90;99.90;;;;;;5047389;28;20890;-50
2020/12/25 10:22:37;;;;;;;11.93;7.70;;;4.70;99.90;;;;;;5046016;28;20409;-52
2020/12/25 10:25:04;;;;;;;11.57;7.63;;;4.70;99.90;;;;;;5047279;28;20425;-50
2020/12/25 10:27:29;;;;;;;12.55;8.15;;;4.80;99.90;;;;;;5049281;28;20392;-50
2020/12/25 10:29:55;;;;;;;13.75;8.10;;;4.60;99.90;;;;;;5046405;28;20389;-50
2020/12/25 10:32:20;;;;;;;13.87;7.30;;;4.60;99.90;;;;;;5049703;28;20833;-50
2020/12/25 10:34:46;;;;;;;13.25;6.88;;;4.70;99.90;;;;;;5043560;28;20416;-50
2020/12/25 10:37:12;;;;;;;10.33;5.93;;;4.70;99.90;;;;;;5049277;28;20868;-51
2020/12/25 10:39:38;;;;;;;11.10;6.30;;;4.70;99.90;;;;;;5046086;28;20444;-50
2020/12/25 10:42:08;;;;;;;9.30;5.50;;;4.50;99.90;;;;;;5048941;28;20429;-49
2020/12/25 10:44:33;;;;;;;12.45;5.70;;;4.40;99.90;;;;;;5047206;28;20391;-50
2020/12/25 10:46:59;;;;;;;10.20;5.17;;;4.40;99.90;;;;;;5043679;28;20489;-51
2020/12/25 10:49:26;;;;;;;10.30;5.18;;;4.20;99.90;;;;;;5045821;28;20440;-50
2020/12/25 10:51:51;;;;;;;9.13;5.30;;;4.30;99.90;;;;;;5049583;28;20392;-50
2020/12/25 10:54:17;;;;;;;9.50;5.40;;;4.30;99.90;;;;;;5048579;28;20397;-49
2020/12/25 10:56:42;;;;;;;9.50;5.00;;;6.60;99.90;;;;;;5046088;28;20463;-53
2020/12/25 10:59:08;;;;;;;10.00;5.40;;;4.30;99.90;;;;;;5047929;28;20720;-50
2020/12/25 11:01:34;;;;;;;10.50;5.10;;;5.10;99.90;;;;;;5042982;28;20405;-52
2020/12/25 11:04:00;;;;;;;9.47;5.10;;;5.50;99.90;;;;;;5028073;28;20399;-50
2020/12/25 11:06:32;;;;;;;10.40;5.53;;;4.10;99.90;;;;;;5047359;28;20444;-50
2020/12/25 11:08:58;;;;;;;10.00;4.70;;;4.10;99.90;;;;;;5046591;28;20397;-50
2020/12/25 11:11:29;;;;;;;9.45;5.55;;;6.30;99.90;;;;;;5047292;28;20449;-52
2020/12/25 11:13:55;;;;;;;9.20;4.82;;;4.70;99.90;;;;;;5046337;28;20416;-49
2020/12/25 11:16:22;;;;;;;10.60;5.57;;;4.50;99.90;;;;;;5047918;28;20397;-53
2020/12/25 11:18:48;;;;;;;9.85;5.80;;;4.30;99.90;;;;;;5047466;28;20402;-49
2020/12/25 11:21:18;;;;;;;9.70;4.60;;;4.60;99.90;;;;;;5047118;28;20408;-50
2020/12/25 11:23:43;;;;;;;8.45;4.50;;;6.20;99.90;;;;;;5047591;28;20400;-52
2020/12/25 11:26:24;;;;;;;10.57;5.20;;;4.70;99.90;;;;;;5047574;28;20413;-49
2020/12/25 11:28:51;;;;;;;11.30;5.20;;;4.50;99.90;;;;;;5047560;28;20875;-50
2020/12/25 11:31:18;;;;;;;8.98;4.90;;;4.40;99.90;;;;;;5047702;28;20484;-52
2020/12/25 11:33:44;;;;;;;10.05;5.03;;;6.50;99.90;;;;;;5048599;28;20402;-52
2020/12/25 11:36:17;;;;;;;10.32;4.65;;;4.50;99.90;;;;;;5049497;28;20417;-51
2020/12/25 11:38:44;;;;;;;11.00;4.80;;;4.30;99.90;;;;;;5046629;28;20385;-55
2020/12/25 11:41:11;;;;;;;8.00;4.50;;;5.20;99.90;;;;;;5030813;28;20393;-50
2020/12/25 11:43:37;;;;;;;9.30;4.72;;;4.40;99.90;;;;;;5047383;28;20548;-50
2020/12/25 11:46:03;;;;;;;8.10;4.50;;;4.50;99.90;;;;;;5043831;28;20403;-50
2020/12/25 11:48:29;;;;;;;10.65;4.75;;;4.40;99.90;;;;;;5049141;28;20382;-50
2020/12/25 11:50:55;;;;;;;9.02;4.85;;;4.40;99.90;;;;;;5046722;28;20389;-50
2020/12/25 11:53:21;;;;;;;7.90;4.43;;;4.30;99.90;;;;;;5047590;28;20438;-50
2020/12/25 11:55:47;;;;;;;8.13;4.70;;;7.00;99.90;;;;;;5047046;28;20425;-50
2020/12/25 11:58:14;;;;;;;9.60;4.63;;;4.20;99.90;;;;;;5048286;28;20855;-51
2020/12/25 12:00:39;;;;;;;9.63;5.40;;;5.20;99.90;;;;;;5046861;28;20401;-50
2020/12/25 12:03:05;;;;;;;9.23;4.68;;;4.30;99.90;;;;;;5047707;28;20385;-50
2020/12/25 12:05:30;;;;;;;9.77;4.40;;;4.40;99.90;;;;;;5046001;28;20447;-50
2020/12/25 12:07:57;;;;;;;8.52;4.43;;;5.60;99.90;;;;;;5048561;28;20882;-50
2020/12/25 12:10:22;;;;;;;10.65;4.53;;;4.30;99.90;;;;;;5048600;28;20905;-50
2020/12/25 12:12:48;;;;;;;8.25;4.30;;;4.30;99.90;;;;;;5046552;28;20475;-51
2020/12/25 12:15:13;;;;;;;8.37;4.60;;;4.30;99.90;;;;;;5048193;28;20386;-50
2020/12/25 12:17:39;;;;;;;9.07;4.60;;;4.30;99.90;;;;;;5046476;28;20393;-51
2020/12/25 12:20:05;;;;;;;9.55;5.05;;;4.20;99.90;;;;;;5050447;28;20385;-51
2020/12/25 12:22:30;;;;;;;9.30;5.20;;;5.10;99.90;;;;;;5052166;28;20401;-50
2020/12/25 12:24:56;;;;;;;10.00;4.67;;;4.20;99.90;;;;;;5051012;28;20476;-50
2020/12/25 12:27:22;;;;;;;9.65;4.57;;;4.10;99.90;;;;;;5051839;28;20477;-49
2020/12/25 12:29:47;;;;;;;9.50;4.60;;;6.60;99.90;;;;;;5051209;28;20386;-50
2020/12/25 12:32:13;;;;;;;7.15;3.80;;;4.10;99.90;;;;;;5050682;28;20397;-50
2020/12/25 12:34:39;;;;;;;8.43;4.70;;;4.00;99.90;;;;;;5051903;28;20492;-50
2020/12/25 12:37:04;;;;;;;7.87;4.00;;;4.10;99.90;;;;;;5046839;28;20417;-51
2020/12/25 12:39:30;;;;;;;9.30;4.00;;;4.00;99.90;;;;;;5051592;28;20829;-53
2020/12/25 12:41:58;;;;;;;10.60;4.83;;;4.20;99.90;;;;;;5050598;28;20862;-50
2020/12/25 12:44:25;;;;;;;8.50;4.20;;;3.90;99.90;;;;;;5047368;28;20467;-50
2020/12/25 12:46:54;;;;;;;9.85;4.32;;;3.90;99.90;;;;;;5050674;28;20476;-51